Time;durP1;ratioP1;P1;durP2;ratioP2;P2;SDS_P1;SDS_P2;PMS_P1;PMS_P2;Temp;Humidity;BMP_temperature;BMP_pressure;BME280_temperature;BME280_humidity;BME280_pressure;Samples;Min_cycle;Max_cycle;Signal;HPM_P1;HPM_P2
2023/03/10 04:28:13;;;;;;;;;;;;;;;11.01;69.26;97569.41;1087040;54;19943;-79
2023/03/10 04:29:17;;;;;;;;;;;;;;;11.08;69.14;97566.72;1087964;54;19942;-80
2023/03/10 04:30:47;;;;;;;;;;;;;;;11.08;69.07;97567.53;1087860;54;19942;-81
2023/03/10 17:48:44;;;;;;;;;;;;;;;7.45;64.51;97973.34;1079488;54;35029;-81
2023/03/10 17:49:45;;;;;;;;;;;;;;;7.45;64.65;97974.16;1088206;54;20568;-84
2023/03/10 17:51:00;;;;;;;;;;;;;;;7.38;65.19;97988.31;1088292;54;19939;-82
2023/03/10 17:55:39;;;;;;;;;;;;;;;7.29;63.30;98006.16;1087803;54;20660;-82
2023/03/10 17:56:46;;;;;;;;;;;;;;;7.27;62.94;98003.69;1088537;47;19966;-81
2023/03/10 17:57:48;;;;;;;;;;;;;;;7.26;62.92;97999.34;1088134;54;19986;-83
2023/03/10 18:20:11;;;;;;;;;;;;;;;6.82;65.13;98029.91;1088430;54;19954;-81
2023/03/10 18:21:14;;;;;;;;;;;;;;;6.82;65.16;98023.75;1088491;54;19938;-85
2023/03/10 18:46:59;;;;;;;;;;;;;;;6.78;65.83;98023.25;1087661;54;20817;-81
2023/03/10 18:48:03;;;;;;;;;;;;;;;6.84;66.03;98029.72;1088363;54;19978;-81
2023/03/10 18:49:30;;;;;;;;;;;;;;;6.86;66.08;98035.69;1088418;54;19987;-83
2023/03/10 18:50:33;;;;;;;;;;;;;;;6.77;65.85;98026.09;1088459;54;19943;-81
2023/03/10 18:52:07;;;;;;;;;;;;;;;6.84;66.09;98040.34;1088881;46;19986;-84
2023/03/10 18:53:09;;;;;;;;;;;;;;;6.93;65.53;98044.63;1088486;54;19927;-82
2023/03/10 18:54:30;;;;;;;;;;;;;;;6.81;65.12;98038.03;1088408;54;19942;-83
2023/03/10 18:55:32;;;;;;;;;;;;;;;6.78;65.45;98030.41;1088559;54;19927;-84
2023/03/10 18:57:03;;;;;;;;;;;;;;;6.75;65.96;98047.53;1088522;54;19958;-82
2023/03/10 18:58:04;;;;;;;;;;;;;;;6.93;65.81;98051.78;1088365;54;19949;-83
2023/03/10 19:00:57;;;;;;;;;;;;;;;6.96;65.39;98036.34;1088502;54;19919;-82
2023/03/10 19:12:50;;;;;;;;;;;;;;;6.72;66.26;98051.31;1088439;54;19990;-82
2023/03/10 19:13:52;;;;;;;;;;;;;;;6.84;66.09;98061.59;1088481;54;19950;-85
2023/03/10 19:15:20;;;;;;;;;;;;;;;6.71;66.26;98059.47;1088609;54;19926;-81
2023/03/10 19:39:55;;;;;;;;;;;;;;;6.38;66.47;98112.56;1087586;54;20524;-82
2023/03/10 19:40:57;;;;;;;;;;;;;;;6.22;66.57;98108.09;1088439;54;19923;-82
2023/03/10 19:42:07;;;;;;;;;;;;;;;6.23;66.59;98117.72;1088386;54;19927;-83
2023/03/10 19:43:08;;;;;;;;;;;;;;;6.25;66.46;98139.59;1088420;54;19934;-82
2023/03/10 19:45:43;;;;;;;;;;;;;;;6.22;67.01;98145.25;1088229;54;19934;-82
2023/03/10 19:46:44;;;;;;;;;;;;;;;6.13;67.13;98122.34;1088536;54;19922;-83
2023/03/10 19:47:49;;;;;;;;;;;;;;;5.94;67.62;98135.69;1088447;54;19943;-83
2023/03/10 19:48:53;;;;;;;;;;;;;;;5.88;68.26;98132.84;1088373;54;19943;-81
2023/03/10 19:50:07;;;;;;;;;;;;;;;5.76;69.80;98149.06;1088367;54;19927;-82
2023/03/10 19:57:11;;;;;;;;;;;;;;;5.65;72.09;98205.03;1087694;54;19939;-81
2023/03/10 19:58:15;;;;;;;;;;;;;;;5.55;72.22;98197.19;1087766;54;19966;-81
2023/03/10 19:59:21;;;;;;;;;;;;;;;5.62;71.71;98208.81;1087770;54;19945;-81
2023/03/10 20:00:26;;;;;;;;;;;;;;;5.61;72.10;98214.28;1088393;46;19965;-78
2023/03/10 20:01:30;;;;;;;;;;;;;;;5.52;72.29;98213.44;1092503;46;19949;-81
2023/03/10 20:02:31;;;;;;;;;;;;;;;5.46;72.55;98220.19;1088077;54;20002;-80
2023/03/10 20:03:36;;;;;;;;;;;;;;;5.45;72.75;98233.56;1088728;46;19949;-81
2023/03/10 20:04:38;;;;;;;;;;;;;;;5.42;72.89;98218.00;1088014;46;20247;-80
2023/03/10 20:05:46;;;;;;;;;;;;;;;5.38;72.39;98230.75;1088071;54;19950;-81
2023/03/10 20:06:50;;;;;;;;;;;;;;;5.47;72.64;98227.16;1087964;54;19943;-80
2023/03/10 20:07:56;;;;;;;;;;;;;;;5.39;72.60;98239.50;1088220;54;19950;-81
2023/03/10 20:09:02;;;;;;;;;;;;;;;5.33;72.57;98242.78;1087970;47;19943;-81
2023/03/10 20:10:04;;;;;;;;;;;;;;;5.39;72.84;98253.59;1087805;54;19939;-80
2023/03/10 20:11:13;;;;;;;;;;;;;;;5.25;72.82;98257.63;1088689;46;19942;-81
2023/03/10 20:12:17;;;;;;;;;;;;;;;5.28;73.27;98286.47;1088299;46;19935;-80
2023/03/10 20:14:32;;;;;;;;;;;;;;;5.22;74.47;98315.41;1088226;54;19938;-80
2023/03/10 20:15:34;;;;;;;;;;;;;;;5.15;75.00;98323.97;1087695;54;19935;-79
2023/03/10 20:16:44;;;;;;;;;;;;;;;4.89;75.46;98315.13;1088082;54;19943;-82
2023/03/10 20:17:46;;;;;;;;;;;;;;;4.91;74.84;98315.81;1088960;46;19947;-81
2023/03/10 20:18:50;;;;;;;;;;;;;;;4.58;75.83;98318.09;1087702;54;19942;-80
2023/03/10 20:19:52;;;;;;;;;;;;;;;4.72;76.18;98336.13;1087714;46;19942;-80
2023/03/10 20:20:55;;;;;;;;;;;;;;;4.43;76.26;98338.94;1088922;46;19942;-80
2023/03/10 20:21:59;;;;;;;;;;;;;;;4.34;76.48;98345.97;1088030;46;19943;-79
2023/03/10 20:23:01;;;;;;;;;;;;;;;4.37;77.37;98345.66;1087375;54;19947;-80
2023/03/10 20:24:05;;;;;;;;;;;;;;;4.29;77.58;98350.84;1087337;54;20029;-80
2023/03/10 20:25:10;;;;;;;;;;;;;;;4.23;77.68;98352.25;1087418;54;19950;-81
2023/03/10 20:26:17;;;;;;;;;;;;;;;4.33;77.66;98362.81;1086958;54;20493;-80
2023/03/10 20:27:18;;;;;;;;;;;;;;;4.36;78.25;98367.78;1086592;54;19969;-81
2023/03/10 20:28:22;;;;;;;;;;;;;;;4.44;77.76;98364.41;1086231;54;20532;-81
2023/03/10 20:29:23;;;;;;;;;;;;;;;4.40;77.73;98363.88;1086335;54;19951;-81
2023/03/10 20:30:31;;;;;;;;;;;;;;;4.36;78.26;98365.13;1086293;54;20058;-81
2023/03/10 20:31:33;;;;;;;;;;;;;;;4.39;77.47;98370.16;1086472;54;19950;-80
2023/03/10 20:32:37;;;;;;;;;;;;;;;4.51;77.77;98379.56;1086603;54;19965;-80
2023/03/10 20:33:38;;;;;;;;;;;;;;;4.41;77.30;98370.00;1086629;54;19950;-81
2023/03/10 20:34:41;;;;;;;;;;;;;;;4.46;76.60;98371.22;1086672;54;19958;-81
2023/03/10 20:35:43;;;;;;;;;;;;;;;4.52;76.42;98383.03;1086475;54;20422;-80
2023/03/10 20:36:46;;;;;;;;;;;;;;;4.50;76.24;98375.25;1086037;54;19958;-79
2023/03/10 20:37:47;;;;;;;;;;;;;;;4.48;73.44;98386.97;1088186;46;19950;-79
2023/03/10 20:38:51;;;;;;;;;;;;;;;4.57;73.69;98394.03;1086610;54;19956;-80
2023/03/10 20:39:52;;;;;;;;;;;;;;;4.50;73.49;98412.31;1086477;54;19954;-81
2023/03/10 20:40:56;;;;;;;;;;;;;;;4.47;74.77;98420.53;1086817;54;19947;-80
2023/03/10 20:41:57;;;;;;;;;;;;;;;4.49;74.29;98401.84;1086812;54;19954;-78
2023/03/10 20:43:01;;;;;;;;;;;;;;;4.60;74.83;98416.72;1086465;54;19997;-80
2023/03/10 20:44:05;;;;;;;;;;;;;;;4.40;71.02;98421.25;1086824;54;19950;-81
2023/03/10 20:45:10;;;;;;;;;;;;;;;4.42;69.80;98414.00;1086615;54;19953;-80
2023/03/10 20:46:18;;;;;;;;;;;;;;;4.43;65.45;98416.53;1086285;54;19950;-80
2023/03/10 20:47:19;;;;;;;;;;;;;;;4.40;62.81;98422.09;1086142;54;20515;-81
2023/03/10 20:48:23;;;;;;;;;;;;;;;4.49;61.90;98431.81;1087019;54;19946;-80
2023/03/10 20:49:24;;;;;;;;;;;;;;;4.56;60.18;98428.56;1086529;54;19946;-79
2023/03/10 20:50:28;;;;;;;;;;;;;;;4.48;57.97;98424.84;1086794;46;19964;-80
2023/03/10 20:51:32;;;;;;;;;;;;;;;4.52;58.91;98441.25;1086221;54;20444;-80
2023/03/10 20:52:36;;;;;;;;;;;;;;;4.51;59.03;98429.84;1086653;54;19970;-81
2023/03/10 20:53:37;;;;;;;;;;;;;;;4.57;57.29;98446.13;1085977;54;19957;-80
2023/03/10 20:54:41;;;;;;;;;;;;;;;4.47;57.50;98457.56;1086967;54;19958;-80
2023/03/10 20:55:42;;;;;;;;;;;;;;;4.47;57.03;98468.16;1086991;54;19953;-80
2023/03/10 20:56:47;;;;;;;;;;;;;;;4.50;58.52;98473.19;1087613;54;19949;-80
2023/03/10 20:57:49;;;;;;;;;;;;;;;4.61;60.81;98466.03;1087177;54;19943;-81
2023/03/10 20:58:58;;;;;;;;;;;;;;;4.67;62.55;98466.28;1087354;54;19949;-81
2023/03/10 20:59:59;;;;;;;;;;;;;;;4.46;65.65;98485.00;1087272;54;19957;-79
2023/03/10 21:01:03;;;;;;;;;;;;;;;4.42;67.13;98485.44;1087398;54;20579;-81
2023/03/10 21:02:12;;;;;;;;;;;;;;;4.47;67.94;98497.28;1087392;54;19951;-81
2023/03/10 21:03:18;;;;;;;;;;;;;;;4.45;67.37;98504.50;1087641;39;20743;-80
2023/03/10 21:04:19;;;;;;;;;;;;;;;4.27;67.11;98506.22;1087516;54;19941;-79
2023/03/10 21:05:24;;;;;;;;;;;;;;;4.24;67.50;98493.31;1087385;54;20017;-79
2023/03/10 21:06:25;;;;;;;;;;;;;;;4.24;67.86;98506.53;1088153;47;19938;-81
2023/03/10 21:07:32;;;;;;;;;;;;;;;4.14;67.52;98496.81;1087643;54;19935;-81
2023/03/10 21:08:33;;;;;;;;;;;;;;;4.26;67.61;98515.13;1087365;54;19943;-79
2023/03/10 21:09:40;;;;;;;;;;;;;;;4.12;64.95;98504.03;1087635;54;20026;-82
2023/03/10 21:10:43;;;;;;;;;;;;;;;4.09;65.12;98520.19;1090010;39;20206;-81
2023/03/10 21:11:47;;;;;;;;;;;;;;;4.11;64.75;98523.53;1087239;54;19949;-81
2023/03/10 21:12:48;;;;;;;;;;;;;;;4.16;64.96;98539.78;1087771;39;20857;-80
2023/03/10 21:13:53;;;;;;;;;;;;;;;4.13;64.91;98537.44;1087148;54;19942;-82
2023/03/10 21:14:54;;;;;;;;;;;;;;;4.25;65.19;98550.53;1087103;54;19958;-79
2023/03/10 21:15:58;;;;;;;;;;;;;;;4.20;64.00;98533.25;1087015;54;19942;-80
2023/03/10 21:17:02;;;;;;;;;;;;;;;4.18;63.97;98547.59;1087183;54;19957;-81
2023/03/10 21:18:09;;;;;;;;;;;;;;;4.16;63.92;98563.59;1087169;54;19943;-79
2023/03/10 21:19:10;;;;;;;;;;;;;;;4.21;64.61;98576.41;1088444;39;20345;-79
2023/03/10 21:20:17;;;;;;;;;;;;;;;4.17;64.05;98580.31;1086695;54;20524;-80
2023/03/10 21:21:20;;;;;;;;;;;;;;;4.22;63.52;98578.94;1086265;54;19942;-79
2023/03/10 21:22:22;;;;;;;;;;;;;;;4.22;63.21;98578.06;1087372;54;20325;-79
2023/03/10 21:23:25;;;;;;;;;;;;;;;4.22;62.50;98583.38;1087185;54;19962;-81
2023/03/10 21:24:27;;;;;;;;;;;;;;;4.25;62.95;98584.94;1087300;54;20176;-79
2023/03/10 21:25:30;;;;;;;;;;;;;;;4.31;62.50;98587.00;1087321;47;19958;-79
2023/03/10 21:26:32;;;;;;;;;;;;;;;4.28;61.78;98587.25;1087152;54;19953;-81
2023/03/10 21:27:35;;;;;;;;;;;;;;;4.20;61.06;98598.56;1087413;54;19973;-81
2023/03/10 21:28:39;;;;;;;;;;;;;;;4.28;61.62;98606.63;1087515;54;19950;-80
2023/03/10 21:29:41;;;;;;;;;;;;;;;4.20;61.23;98599.38;1086829;54;19981;-79
2023/03/10 21:30:45;;;;;;;;;;;;;;;4.23;59.79;98606.22;1086825;54;19946;-79
2023/03/10 21:31:46;;;;;;;;;;;;;;;4.23;59.35;98606.22;1086427;54;19957;-81
2023/03/10 21:32:50;;;;;;;;;;;;;;;4.21;59.02;98603.72;1086493;54;20006;-79
2023/03/10 21:33:54;;;;;;;;;;;;;;;4.19;58.40;98612.75;1088812;39;20586;-79
2023/03/10 21:34:58;;;;;;;;;;;;;;;4.21;59.68;98597.56;1087216;54;19949;-82
2023/03/10 21:35:59;;;;;;;;;;;;;;;4.18;58.93;98613.75;1087466;54;19955;-80
2023/03/10 21:37:03;;;;;;;;;;;;;;;4.17;58.19;98612.88;1087262;54;19949;-79
2023/03/10 21:38:04;;;;;;;;;;;;;;;4.24;57.92;98617.63;1087098;54;19950;-80
2023/03/10 21:39:10;;;;;;;;;;;;;;;4.19;57.11;98623.34;1087394;54;19942;-80
2023/03/10 21:40:13;;;;;;;;;;;;;;;4.24;56.15;98615.00;1086974;54;19943;-81
2023/03/10 21:41:18;;;;;;;;;;;;;;;4.21;55.62;98630.16;1086779;54;19954;-80
2023/03/10 21:42:19;;;;;;;;;;;;;;;4.23;54.61;98624.72;1087217;54;19942;-80
2023/03/10 21:43:26;;;;;;;;;;;;;;;4.24;52.95;98629.03;1086996;54;19994;-78
2023/03/10 21:44:29;;;;;;;;;;;;;;;4.20;53.31;98631.13;1087413;54;20532;-80
2023/03/10 21:45:32;;;;;;;;;;;;;;;4.18;53.05;98635.72;1087366;54;20794;-81
2023/03/10 21:46:36;;;;;;;;;;;;;;;4.25;51.73;98633.38;1087421;54;19942;-81
2023/03/10 21:47:37;;;;;;;;;;;;;;;4.30;52.64;98627.66;1086950;54;19947;-80
2023/03/10 21:48:41;;;;;;;;;;;;;;;4.28;53.15;98642.81;1087278;54;19954;-83
2023/03/10 21:49:48;;;;;;;;;;;;;;;4.27;53.74;98643.78;1087046;54;19950;-80
2023/03/10 21:50:49;;;;;;;;;;;;;;;4.22;53.23;98634.47;1088338;39;20634;-80
2023/03/10 21:51:53;;;;;;;;;;;;;;;4.40;53.82;98622.34;1087438;54;19947;-80
2023/03/10 21:52:54;;;;;;;;;;;;;;;4.24;53.45;98628.22;1087336;54;19942;-82
2023/03/10 21:53:57;;;;;;;;;;;;;;;4.24;53.68;98634.34;1087573;54;20046;-82
2023/03/10 21:54:59;;;;;;;;;;;;;;;4.24;54.43;98641.44;1087491;54;19950;-82
2023/03/10 21:56:02;;;;;;;;;;;;;;;4.19;54.85;98653.28;1088564;54;19942;-81
2023/03/10 21:57:03;;;;;;;;;;;;;;;4.15;55.39;98651.88;1088518;54;19939;-79
2023/03/10 21:58:16;;;;;;;;;;;;;;;4.16;55.74;98652.72;1088611;47;19923;-80
2023/03/10 21:59:17;;;;;;;;;;;;;;;4.16;56.25;98656.19;1088395;54;19967;-80
2023/03/10 22:00:23;;;;;;;;;;;;;;;4.13;56.10;98656.47;1088551;54;19930;-80
2023/03/10 22:01:27;;;;;;;;;;;;;;;4.13;55.71;98655.63;1090272;46;19950;-80
2023/03/10 22:02:30;;;;;;;;;;;;;;;4.19;55.88;98663.03;1089304;46;19942;-79
2023/03/10 22:03:34;;;;;;;;;;;;;;;4.09;55.81;98655.06;1089785;46;19942;-80
2023/03/10 22:04:36;;;;;;;;;;;;;;;4.13;56.00;98655.63;1088291;54;19953;-81
2023/03/10 22:05:42;;;;;;;;;;;;;;;4.08;55.47;98663.16;1087833;54;19942;-81
2023/03/10 22:06:43;;;;;;;;;;;;;;;4.12;55.32;98667.16;1087895;54;19938;-82
2023/03/10 22:07:47;;;;;;;;;;;;;;;4.12;54.83;98659.25;1088014;54;19943;-81
2023/03/10 22:08:48;;;;;;;;;;;;;;;4.05;55.30;98677.50;1087798;54;19943;-79
2023/03/10 22:09:51;;;;;;;;;;;;;;;4.12;55.12;98659.25;1087104;54;19935;-79
2023/03/10 22:10:55;;;;;;;;;;;;;;;4.08;54.88;98657.84;1087519;54;19954;-80
2023/03/10 22:11:56;;;;;;;;;;;;;;;4.10;55.32;98654.09;1087465;54;19950;-81
2023/03/10 22:13:01;;;;;;;;;;;;;;;4.16;55.39;98653.53;1087825;54;19949;-81
2023/03/10 22:14:02;;;;;;;;;;;;;;;4.17;54.76;98665.78;1087999;54;20038;-81
2023/03/10 22:15:08;;;;;;;;;;;;;;;4.10;55.46;98667.31;1088384;54;19938;-82
2023/03/10 22:16:12;;;;;;;;;;;;;;;4.05;55.85;98674.84;1088597;54;19923;-81
2023/03/10 22:17:16;;;;;;;;;;;;;;;4.04;56.10;98658.13;1088129;54;19938;-80
2023/03/10 22:18:20;;;;;;;;;;;;;;;4.10;56.14;98677.06;1089008;46;19943;-79
2023/03/10 22:19:23;;;;;;;;;;;;;;;4.13;55.90;98671.50;1089628;46;19938;-80
2023/03/10 22:20:28;;;;;;;;;;;;;;;4.10;55.90;98683.19;1091411;46;19957;-82
2023/03/10 22:21:32;;;;;;;;;;;;;;;4.05;56.13;98674.84;1088032;54;19950;-81
2023/03/10 22:22:36;;;;;;;;;;;;;;;4.08;55.98;98669.25;1087948;54;19966;-81
2023/03/10 22:23:37;;;;;;;;;;;;;;;4.11;56.43;98682.22;1087557;54;19942;-81
2023/03/10 22:24:42;;;;;;;;;;;;;;;4.12;56.33;98672.47;1087386;54;19943;-79
2023/03/10 22:25:46;;;;;;;;;;;;;;;4.11;56.89;98682.22;1087334;54;19966;-80
2023/03/10 22:26:48;;;;;;;;;;;;;;;4.19;57.11;98687.66;1086785;54;19957;-79
2023/03/10 22:27:53;;;;;;;;;;;;;;;4.24;56.78;98691.72;1087384;54;19954;-80
2023/03/10 22:28:54;;;;;;;;;;;;;;;4.21;56.86;98693.66;1087283;54;19950;-80
2023/03/10 22:29:57;;;;;;;;;;;;;;;4.15;57.32;98688.91;1088350;54;20597;-83
2023/03/10 22:30:59;;;;;;;;;;;;;;;4.26;57.53;98687.94;1091654;39;20581;-82
2023/03/10 22:32:03;;;;;;;;;;;;;;;4.30;57.47;98683.22;1088067;54;19958;-81
2023/03/10 22:33:05;;;;;;;;;;;;;;;4.18;57.75;98683.34;1088509;46;20001;-81
2023/03/10 22:34:10;;;;;;;;;;;;;;;4.10;58.39;98685.00;1088341;54;19943;-82
2023/03/10 22:35:11;;;;;;;;;;;;;;;4.21;58.02;98693.66;1090358;46;19994;-82
2023/03/10 22:36:17;;;;;;;;;;;;;;;4.21;57.95;98698.94;1088197;54;20672;-81
2023/03/10 22:37:21;;;;;;;;;;;;;;;4.18;59.04;98704.50;1088254;54;19992;-82
2023/03/10 22:38:25;;;;;;;;;;;;;;;4.22;58.72;98700.63;1088321;54;20603;-81
2023/03/10 22:39:26;;;;;;;;;;;;;;;4.30;58.50;98699.09;1088394;54;19939;-81
2023/03/10 22:40:30;;;;;;;;;;;;;;;4.37;58.53;98697.56;1087923;54;20614;-80
2023/03/10 22:41:31;;;;;;;;;;;;;;;4.37;58.64;98716.94;1088072;54;19942;-81
2023/03/10 22:42:34;;;;;;;;;;;;;;;4.35;58.46;98703.00;1087873;54;19942;-80
2023/03/10 22:43:38;;;;;;;;;;;;;;;4.34;58.75;98706.63;1087669;54;19958;-81
2023/03/10 22:44:39;;;;;;;;;;;;;;;4.26;58.34;98708.25;1087702;54;19942;-80
2023/03/10 22:45:43;;;;;;;;;;;;;;;4.26;58.47;98705.63;1088441;54;19958;-82
2023/03/10 22:46:45;;;;;;;;;;;;;;;4.31;58.47;98708.69;1088405;54;19958;-81
2023/03/10 22:47:50;;;;;;;;;;;;;;;4.27;58.49;98718.72;1088544;54;19977;-83
2023/03/10 22:48:52;;;;;;;;;;;;;;;4.28;58.43;98724.84;1088266;54;19954;-82
2023/03/10 22:49:56;;;;;;;;;;;;;;;4.20;57.74;98713.13;1088218;54;19943;-80
2023/03/10 22:50:57;;;;;;;;;;;;;;;4.31;58.25;98719.28;1087993;54;19949;-82
2023/03/10 22:52:07;;;;;;;;;;;;;;;4.27;57.53;98715.22;1088296;54;19994;-83
2023/03/10 22:53:13;;;;;;;;;;;;;;;4.34;57.50;98730.44;1088365;54;19942;-82
2023/03/10 22:54:17;;;;;;;;;;;;;;;4.30;57.58;98733.47;1088212;54;19995;-81
2023/03/10 22:55:23;;;;;;;;;;;;;;;4.25;57.43;98735.72;1088768;39;20479;-82
2023/03/10 22:56:27;;;;;;;;;;;;;;;4.22;57.58;98732.38;1088409;54;19946;-80
2023/03/10 22:57:28;;;;;;;;;;;;;;;4.14;57.57;98736.66;1088446;54;19939;-81
2023/03/10 22:58:32;;;;;;;;;;;;;;;4.18;58.11;98738.06;1093204;46;19970;-82
2023/03/10 22:59:34;;;;;;;;;;;;;;;4.17;57.88;98745.16;1091680;46;19954;-80
2023/03/10 23:00:41;;;;;;;;;;;;;;;4.07;57.63;98744.28;1090780;47;19941;-82
2023/03/10 23:01:42;;;;;;;;;;;;;;;3.98;57.72;98743.31;1088811;54;19935;-82
2023/03/10 23:02:58;;;;;;;;;;;;;;;4.09;58.15;98746.81;1088766;54;19942;-82
2023/03/10 23:03:59;;;;;;;;;;;;;;;4.19;57.94;98747.69;1089393;46;19930;-82
2023/03/10 23:05:14;;;;;;;;;;;;;;;4.22;57.73;98748.25;1098467;46;19946;-82
2023/03/10 23:06:19;;;;;;;;;;;;;;;4.17;57.44;98752.25;1088737;54;19950;-83
2023/03/10 23:07:21;;;;;;;;;;;;;;;4.18;57.87;98761.88;1101028;46;19950;-82
2023/03/10 23:08:28;;;;;;;;;;;;;;;4.17;57.78;98750.44;1089486;46;19994;-81
2023/03/10 23:09:29;;;;;;;;;;;;;;;4.16;57.43;98759.34;1088483;54;19934;-82
2023/03/10 23:10:43;;;;;;;;;;;;;;;4.15;57.00;98757.69;1088232;54;19949;-81
2023/03/10 23:11:45;;;;;;;;;;;;;;;4.19;57.26;98759.09;1088622;54;19946;-81
2023/03/10 23:12:51;;;;;;;;;;;;;;;4.22;57.23;98758.81;1088644;54;19990;-82
2023/03/10 23:13:52;;;;;;;;;;;;;;;4.16;57.12;98759.34;1091297;46;19942;-82
2023/03/10 23:14:57;;;;;;;;;;;;;;;4.31;57.66;98753.69;1088039;54;19939;-82
2023/03/10 23:16:05;;;;;;;;;;;;;;;4.24;57.49;98747.28;1090150;46;19927;-81
2023/03/10 23:17:09;;;;;;;;;;;;;;;4.18;57.56;98768.00;1088488;54;19922;-83
2023/03/10 23:18:15;;;;;;;;;;;;;;;4.22;57.36;98763.25;1093812;46;19958;-81
2023/03/10 23:19:19;;;;;;;;;;;;;;;4.15;57.21;98755.06;1089262;46;19991;-82
2023/03/10 23:20:22;;;;;;;;;;;;;;;4.12;57.72;98757.97;1088533;54;19950;-82
2023/03/10 23:21:26;;;;;;;;;;;;;;;4.28;57.54;98767.19;1088346;54;19999;-81
2023/03/10 23:22:27;;;;;;;;;;;;;;;4.36;57.64;98754.09;1088172;54;19973;-80
2023/03/10 23:23:34;;;;;;;;;;;;;;;4.29;57.21;98760.91;1088063;54;19942;-81
2023/03/10 23:24:35;;;;;;;;;;;;;;;4.29;57.30;98767.06;1088118;54;19965;-80
2023/03/10 23:25:45;;;;;;;;;;;;;;;4.20;57.18;98768.69;1089583;46;19950;-81
2023/03/10 23:26:49;;;;;;;;;;;;;;;4.19;57.31;98764.38;1088101;54;19946;-81
2023/03/10 23:27:59;;;;;;;;;;;;;;;4.16;57.50;98777.03;1091823;46;19950;-82
2023/03/10 23:29:03;;;;;;;;;;;;;;;4.21;57.69;98767.72;1088198;54;19933;-81
2023/03/10 23:30:06;;;;;;;;;;;;;;;4.27;57.88;98763.72;1088688;46;19939;-82
2023/03/10 23:31:14;;;;;;;;;;;;;;;4.10;58.37;98757.25;1088328;46;19951;-82
2023/03/10 23:32:15;;;;;;;;;;;;;;;4.10;57.98;98767.81;1088020;54;19943;-82
2023/03/10 23:33:20;;;;;;;;;;;;;;;4.10;58.01;98764.38;1087909;54;19939;-82
2023/03/10 23:34:21;;;;;;;;;;;;;;;4.09;58.59;98762.69;1088044;54;19927;-80
2023/03/10 23:35:29;;;;;;;;;;;;;;;4.12;58.38;98760.59;1087908;54;19970;-81
2023/03/10 23:36:31;;;;;;;;;;;;;;;4.13;59.05;98762.28;1087985;54;19958;-81
2023/03/10 23:37:34;;;;;;;;;;;;;;;4.21;58.68;98762.44;1089456;39;20570;-81
2023/03/10 23:38:38;;;;;;;;;;;;;;;4.20;58.72;98760.75;1087990;54;19934;-82
2023/03/10 23:39:42;;;;;;;;;;;;;;;4.22;59.13;98773.84;1088074;54;19973;-81
2023/03/10 23:40:43;;;;;;;;;;;;;;;4.22;59.72;98769.41;1088178;54;19943;-81
2023/03/10 23:41:48;;;;;;;;;;;;;;;4.19;59.85;98774.94;1087986;54;19961;-81
2023/03/10 23:42:50;;;;;;;;;;;;;;;4.20;59.52;98771.34;1087920;54;19954;-81
2023/03/10 23:43:54;;;;;;;;;;;;;;;4.27;59.34;98773.44;1087956;54;19946;-82
2023/03/10 23:44:59;;;;;;;;;;;;;;;4.06;59.78;98769.09;1088017;54;19943;-81
2023/03/10 23:46:05;;;;;;;;;;;;;;;4.07;59.67;98768.09;1088180;54;19958;-82
2023/03/10 23:47:06;;;;;;;;;;;;;;;4.03;59.76;98774.63;1088140;54;20693;-82
2023/03/10 23:48:11;;;;;;;;;;;;;;;4.05;60.23;98778.00;1088258;47;19930;-82
2023/03/10 23:49:12;;;;;;;;;;;;;;;4.04;60.37;98771.84;1088260;54;19942;-80
2023/03/10 23:50:19;;;;;;;;;;;;;;;4.08;59.99;98769.75;1088117;54;19927;-80
2023/03/10 23:51:23;;;;;;;;;;;;;;;4.20;60.11;98781.94;1088098;54;19923;-80
2023/03/10 23:52:26;;;;;;;;;;;;;;;4.13;60.28;98786.09;1088145;54;19934;-82
2023/03/10 23:53:32;;;;;;;;;;;;;;;4.18;60.11;98781.22;1087986;54;19973;-81
2023/03/10 23:54:36;;;;;;;;;;;;;;;4.28;60.16;98777.75;1088153;54;19926;-81
2023/03/10 23:55:42;;;;;;;;;;;;;;;3.95;60.31;98788.50;1089587;46;19955;-81
2023/03/10 23:56:47;;;;;;;;;;;;;;;3.97;60.61;98785.75;1088169;54;19949;-81
2023/03/10 23:57:51;;;;;;;;;;;;;;;4.11;60.54;98780.09;1088029;54;19994;-80
2023/03/10 23:58:57;;;;;;;;;;;;;;;4.12;60.31;98788.84;1088171;47;19939;-81
2023/03/10 23:59:58;;;;;;;;;;;;;;;4.04;60.69;98790.34;1088147;54;19979;-80
